Flight Track Log - Related Links

Times and Time Zones

All times are in EDT time to prevent confusion due to time zone crossing. See the GJS3649 flight status page for this flight to view local times or setup timezone preferences in your user account.

Time Position Orientation Groundspeed Altitude Reporting Facility
EDT Latitude Longitude Course Direction KTS MPH feet Rate Location/Type
Tue 05:02:11 PM 38.8333 -77.4833 191° South 248 285 4,400  Level Potomac TRACON
Tue 05:04:20 PM 38.6692 -77.4847 180° South 292 336 9,100 1,746 Climbing Washington Center
Tue 05:05:20 PM 38.6283 -77.5608 236° Southwest 249 287 9,900 700 Climbing Washington Center
Tue 05:06:20 PM 38.6558 -77.6572 290° West 223 257 10,500 1,169 Climbing Washington Center
Tue 05:07:18 PM 38.6917 -77.7619 294° West 267 307 12,200 1,600 Climbing Washington Center
Tue 05:08:20 PM 38.7275 -77.8561 296° West 295 339 13,700 1,623 Climbing Washington Center
Tue 05:09:20 PM 38.7689 -77.9694 295° West 326 375 15,500 1,831 Climbing Washington Center
Tue 05:10:18 PM 38.8103 -78.0878 294° West 347 399 17,300 1,678 Climbing Washington Center
Tue 05:11:18 PM 38.8497 -78.2039 294° West 353 406 18,800 1,438 Climbing Washington Center
Tue 05:12:19 PM 38.8528 -78.3400 272° West 366 421 20,200 1,279 Climbing Washington Center
Tue 05:13:20 PM 38.8517 -78.4758 269° West 376 433 21,400 1,109 Climbing Washington Center
Tue 05:14:18 PM 38.8503 -78.6197 269° West 394 453 22,400 1,017 Climbing Washington Center
Tue 05:15:18 PM 38.8486 -78.7689 269° West 410 472 23,400 1,082 Climbing Washington Center
Tue 05:16:20 PM 38.8444 -78.9153 268° West 416 479 24,600 1,150 Climbing Washington Center
Tue 05:17:18 PM 38.8422 -79.0672 269° West 421 484 25,700 1,059 Climbing Washington Center
Tue 05:18:19 PM 38.8400 -79.2192 269° West 421 484 26,700 984 Climbing Washington Center
Tue 05:19:20 PM 38.8186 -79.3672 260° West 421 484 27,700 893 Climbing Washington Center
Tue 05:20:20 PM 38.8003 -79.4889 259° West 426 490 28,500 1,576 Climbing Washington Center
Tue 05:21:18 PM 38.7733 -79.6739 259° West 434 499 30,800 1,765 Climbing Washington Center
Tue 05:22:19 PM 38.7494 -79.8161 258° West 427 491 32,000 885 Climbing Washington Center
Tue 05:23:20 PM 38.7269 -79.9772 260° West 422 486 32,600 550 Climbing Washington Center
Tue 05:24:19 PM 38.7133 -80.1256 263° West 429 494 33,100 579 Climbing Washington Center
Tue 05:25:45 PM 38.7172 -80.3467 271° West 435 501 34,000 608 Climbing Indianapolis Center
Tue 05:26:47 PM 38.7214 -80.5028 272° West 438 504 34,600 581 Climbing Indianapolis Center
Tue 05:27:49 PM 38.7242 -80.6611 271° West 444 511 35,200 726 Climbing Indianapolis Center
Tue 05:28:51 PM 38.7144 -80.8189 266° West 445 512 36,100 927 Climbing Indianapolis Center
Tue 05:29:52 PM 38.7083 -80.9744 267° West 438 504 37,100 829 Climbing Indianapolis Center
Tue 05:30:54 PM 38.7069 -81.1264 269° West 429 494 37,800 435 Climbing Indianapolis Center
Tue 05:31:56 PM 38.7067 -81.2794 270° West 431 496 38,000 97 Climbing Indianapolis Center
Tue 05:32:58 PM 38.7050 -81.4692 269° West 438 504 38,000  Level Indianapolis Center
Tue 05:34:00 PM 38.7044 -81.6236 270° West 434 499 38,000  Level Indianapolis Center
Tue 05:35:01 PM 38.7031 -81.7583 269° West 428 493 38,000  Level Indianapolis Center
Tue 05:36:03 PM 38.7014 -81.9072 269° West 422 486 38,000  Level Indianapolis Center
Tue 05:37:05 PM 38.6986 -82.0864 269° West 420 483 38,000  Level Indianapolis Center
Tue 05:38:07 PM 38.6961 -82.2375 269° West 424 488 38,000  Level Indianapolis Center
Tue 05:39:09 PM 38.6956 -82.3919 270° West 432 497 38,000  Level Indianapolis Center
Tue 05:40:11 PM 38.6922 -82.5478 268° West 437 503 38,000  Level Indianapolis Center
Tue 05:41:12 PM 38.6906 -82.7025 269° West 436 502 38,000  Level Indianapolis Center
Tue 05:42:14 PM 38.6875 -82.8586 269° West 439 505 38,000  Level Indianapolis Center
Tue 05:43:16 PM 38.6839 -83.0131 268° West 436 502 38,000  Level Indianapolis Center
Tue 05:44:18 PM 38.6803 -83.1778 268° West 440 506 38,000  Level Indianapolis Center
Tue 05:45:20 PM 38.6756 -83.3636 268° West 443 510 38,000  Level Indianapolis Center
Tue 05:46:22 PM 38.6717 -83.5253 268° West 448 516 38,000  Level Indianapolis Center
Tue 05:47:24 PM 38.6681 -83.6872 268° West 449 517 38,000  Level Indianapolis Center
Tue 05:48:25 PM 38.6631 -83.8483 268° West 449 517 38,000  Level Indianapolis Center
Tue 05:49:27 PM 38.6581 -84.0100 268° West 450 518 38,000  Level Indianapolis Center
Tue 05:50:29 PM 38.6528 -84.1728 268° West 454 522 38,000  Level Indianapolis Center
Tue 05:51:31 PM 38.6717 -84.3281 279° West 443 510 38,000  Level Indianapolis Center
Tue 05:52:33 PM 38.7358 -84.4572 303° West 429 494 38,000  Level Indianapolis Center
Tue 05:53:35 PM 38.8192 -84.6000 307° West 438 504 38,000  Level Indianapolis Center
Tue 05:54:37 PM 38.8886 -84.7267 305° West 437 503 38,000  Level Indianapolis Center
Tue 05:55:39 PM 38.9383 -84.8833 292° West 443 510 38,000  Level Indianapolis Center
Tue 05:56:41 PM 38.9842 -85.0136 294° West 434 499 38,000  Level Indianapolis Center
Tue 05:57:43 PM 39.0361 -85.1522 296° West 433 498 38,000  Level Indianapolis Center
Tue 05:58:45 PM 39.1150 -85.2986 305° West 416 479 38,000  Level Indianapolis Center
Tue 05:59:47 PM 39.1925 -85.4119 311° West 422 486 38,000  Level Indianapolis Center
Tue 06:00:48 PM 39.2689 -85.5294 310° West 425 489 38,000  Level Indianapolis Center
Tue 06:01:50 PM 39.3461 -85.6461 311° West 430 495 38,000  Level Indianapolis Center
Tue 06:02:52 PM 39.4236 -85.7631 311° West 429 494 38,000  Level Indianapolis Center
Tue 06:03:54 PM 39.4994 -85.8800 310° West 428 493 38,000  Level Indianapolis Center
Tue 06:04:56 PM 39.6100 -85.9908 322° Northwest 426 490 38,000  Level Indianapolis Center
Tue 06:05:58 PM 39.7158 -86.0558 335° Northwest 428 493 38,000  Level Indianapolis Center
Tue 06:07:00 PM 39.8242 -86.1200 336° Northwest 438 504 38,000  Level Indianapolis Center
Tue 06:08:02 PM 39.9325 -86.1903 334° Northwest 444 511 38,000  Level Indianapolis Center
Tue 06:09:04 PM 40.0642 -86.2728 334° Northwest 444 511 38,000  Level Indianapolis Center
Tue 06:10:06 PM 40.1758 -86.3425 334° Northwest 446 513 38,000  Level Indianapolis Center
Tue 06:11:08 PM 40.2864 -86.4131 334° Northwest 446 513 38,000  Level Indianapolis Center
Tue 06:12:09 PM 40.3978 -86.4831 334° Northwest 447 514 38,000  Level Indianapolis Center
Tue 06:13:11 PM 40.5089 -86.5533 334° Northwest 446 513 38,000  Level Indianapolis Center
Tue 06:14:14 PM 40.6211 -86.6247 334° Northwest 447 514 38,000  Level Indianapolis Center
Tue 06:15:15 PM 40.7556 -86.7108 334° Northwest 450 518 38,000  Level Indianapolis Center
Tue 06:16:17 PM 40.8683 -86.7817 335° Northwest 449 517 38,000  Level Indianapolis Center
Tue 06:17:19 PM 40.9803 -86.8533 334° Northwest 448 516 38,000  Level Indianapolis Center
Tue 06:18:21 PM 41.0919 -86.9258 334° Northwest 449 517 38,000  Level Indianapolis Center
Tue 06:19:23 PM 41.2044 -86.9989 334° Northwest 450 518 38,000  Level Indianapolis Center
Tue 06:20:54 PM 41.3892 -87.1078 336° Northwest 445 512 38,000  Level Chicago Center
Tue 06:21:56 PM 41.5100 -87.1472 346° North 450 518 38,000  Level Chicago Center
Tue 06:22:58 PM 41.6314 -87.1892 346° North 454 522 38,000  Level Chicago Center
Tue 06:24:00 PM 41.7508 -87.2322 345° North 450 518 38,000  Level Chicago Center
Tue 06:25:02 PM 41.8694 -87.2750 345° North 448 516 38,000  Level Chicago Center
Tue 06:26:04 PM 42.0153 -87.3194 347° North 450 518 38,000  Level Chicago Center
Tue 06:27:06 PM 42.1289 -87.3644 344° North 438 504 38,000  Level Chicago Center
Tue 06:28:08 PM 42.2275 -87.4564 325° Northwest 435 501 38,000  Level Chicago Center
Tue 06:29:10 PM 42.3264 -87.5456 326° Northwest 433 498 38,000  Level Chicago Center
Tue 06:30:12 PM 42.4411 -87.6514 326° Northwest 423 487 38,000  Level Chicago Center
Tue 06:31:14 PM 42.5378 -87.7425 325° Northwest 427 491 38,000  Level Chicago Center
Tue 06:32:16 PM 42.6369 -87.8347 326° Northwest 436 502 38,000  Level Chicago Center
Tue 06:33:18 PM 42.7394 -87.9297 326° Northwest 445 512 38,000  Level Chicago Center
Tue 06:34:20 PM 42.8403 -88.0244 325° Northwest 442 509 38,000  Level Chicago Center
Tue 06:35:22 PM 42.9575 -88.1342 326° Northwest 438 504 38,000  Level Chicago Center
Tue 06:36:24 PM 43.0572 -88.2300 325° Northwest 437 503 38,000  Level Chicago Center
Tue 06:37:26 PM 43.1450 -88.3394 318° Northwest 437 503 38,000  Level Chicago Center
Tue 06:38:27 PM 43.2219 -88.4669 310° West 434 499 38,000  Level Chicago Center
Tue 06:39:29 PM 43.2964 -88.5969 308° West 429 494 38,000  Level Chicago Center
Tue 06:40:31 PM 43.3728 -88.7278 309° West 432 497 38,000  Level Chicago Center
Tue 06:41:33 PM 43.4486 -88.8544 310° West 425 489 38,000 -145 Level Chicago Center
Tue 06:42:35 PM 43.5225 -88.9822 309° West 424 488 37,700 -726 Descending Chicago Center
Tue 06:43:37 PM 43.6092 -89.1331 308° West 427 491 36,500 -1,065 Descending Chicago Center
Tue 06:44:39 PM 43.6822 -89.2608 308° West 425 489 35,500 -968 Descending Chicago Center
Tue 06:45:41 PM 43.7553 -89.3881 309° West 423 487 34,500 -726 Descending Chicago Center
Tue 06:46:43 PM 43.8258 -89.5150 308° West 417 480 34,000 -242 Descending Chicago Center
Tue 06:47:45 PM 43.8997 -89.6439 309° West 422 486 34,000  Level Chicago Center
Tue 06:48:47 PM 43.9733 -89.7753 308° West 428 493 34,000  Level Chicago Center
Tue 06:49:49 PM 44.0583 -89.9283 308° West 428 493 34,000  Level Chicago Center
Tue 06:50:51 PM 44.1308 -90.0578 308° West 424 488 34,000  Level Chicago Center
Tue 06:51:53 PM 44.2031 -90.1875 308° West 425 489 34,000  Level Chicago Center
Tue 06:52:55 PM 44.2786 -90.3269 307° West 426 490 34,000  Level Chicago Center
Tue 06:53:57 PM 44.3472 -90.4583 306° West 424 488 34,000 -290 Level Chicago Center
Tue 06:54:59 PM 44.3922 -90.6069 293° West 418 481 33,400 -1,016 Descending Chicago Center
Tue 06:56:01 PM 44.4350 -90.7542 292° West 416 479 31,900 -1,610 Descending Chicago Center
Tue 06:57:02 PM 44.4886 -90.9331 293° West 419 482 30,100 -1,610 Descending Chicago Center
Tue 06:58:04 PM 44.5289 -91.0750 292° West 398 458 28,600 -1,403 Descending Chicago Center
Tue 06:59:06 PM 44.5667 -91.2050 292° West 370 426 27,200 -1,721 Descending Chicago Center
Tue 07:00:20 PM 44.6094 -91.3522 292° West 360 414 24,700 -2,338 Descending Minneapolis Center
Tue 07:01:22 PM 44.6544 -91.5092 292° West 361 415 21,900 -2,448 Descending Minneapolis Center
Tue 07:02:25 PM 44.6933 -91.6408 293° West 365 420 19,600 -2,256 Descending Minneapolis Center
Tue 07:03:27 PM 44.7286 -91.7653 292° West 353 406 17,200 -2,226 Descending Minneapolis Center
Tue 07:04:29 PM 44.7603 -91.8831 291° West 332 382 15,000 -2,177 Descending Minneapolis Center
Tue 07:05:31 PM 44.7914 -91.9900 292° West 301 346 12,700 -1,694 Descending Minneapolis Center
Tue 07:06:33 PM 44.8275 -92.1189 292° West 295 339 11,500 -1,065 Descending Minneapolis Center
Tue 07:07:35 PM 44.8578 -92.2264 292° West 296 341 10,500 -726 Descending Minneapolis Center
Tue 07:08:37 PM 44.8744 -92.3364 282° West 293 337 10,000 -435 Descending Minneapolis Center
Tue 07:09:39 PM 44.8325 -92.4308 238° Southwest 279 321 9,600 -484 Descending Minneapolis Center
Tue 07:10:41 PM 44.7917 -92.5186 237° Southwest 270 311 9,000 -350 Descending Minneapolis Center
Tue 07:11:56 PM 44.7417 -92.6247 236° Southwest 272 313 8,800 -876 Descending Minneapolis Center
Tue 07:12:58 PM 44.7181 -92.7419 254° West 262 302 7,000 -968 Descending Minneapolis Center
Tue 07:14:00 PM 44.7172 -92.8389 269° West 249 287 6,800 -726 Descending Minneapolis Center
Tue 07:15:02 PM 44.7453 -92.9067 300° West 201 231 5,500 -1,065 Descending Minneapolis Center
Tue 07:16:04 PM 44.7739 -92.9739 301° West 202 232 4,600 -919 Descending Minneapolis Center
Tue 07:17:06 PM 44.8033 -93.0397 302° West 201 231 3,600 -1,065 Descending Minneapolis Center
Tue 07:18:08 PM 44.8306 -93.1022 302° West 157 181 2,400 -871 Descending Minneapolis Center
Tue 07:19:10 PM 44.8483 -93.1428 302° West 125 144 1,800 -629 Descending Minneapolis Center
Tue 07:20:12 PM 44.8667 -93.1856 301° West 129 148 1,100 -677 Descending Minneapolis Center
Tue 07:22:00 PM 44.8667 -93.2167 270° West  Level FlightAware Approximate
Tue 07:29:00 PM 44.8820 -93.2218 270° West  Level Estimated

Login

Don't have an account? Register now (free) for customized features, flight alerts, and more!